sensor_id;sensor_type;location;lat;lon;timestamp;temperature;humidity
27619;DHT22;15039;50.830;4.730;2023-02-01T00:02:01;7.50;99.90
27619;DHT22;15039;50.830;4.730;2023-02-01T00:04:27;7.50;99.90
27619;DHT22;15039;50.830;4.730;2023-02-01T00:06:53;7.50;99.90
27619;DHT22;15039;50.830;4.730;2023-02-01T00:09:19;7.60;99.90
27619;DHT22;15039;50.830;4.730;2023-02-01T00:11:44;7.60;99.90
27619;DHT22;15039;50.830;4.730;2023-02-01T00:14:10;7.60;99.90
27619;DHT22;15039;50.830;4.730;2023-02-01T00:16:36;7.60;99.90
27619;DHT22;15039;50.830;4.730;2023-02-01T00:19:05;7.60;99.90
27619;DHT22;15039;50.830;4.730;2023-02-01T00:21:31;7.70;99.90
27619;DHT22;15039;50.830;4.730;2023-02-01T00:23:57;7.70;99.90
27619;DHT22;15039;50.830;4.730;2023-02-01T00:26:34;7.70;99.90
27619;DHT22;15039;50.830;4.730;2023-02-01T00:29:03;7.60;99.90
27619;DHT22;15039;50.830;4.730;2023-02-01T00:31:28;7.60;99.90
27619;DHT22;15039;50.830;4.730;2023-02-01T00:33:54;7.70;99.90
27619;DHT22;15039;50.830;4.730;2023-02-01T00:36:20;7.70;99.90
27619;DHT22;15039;50.830;4.730;2023-02-01T00:38:45;7.80;99.90
27619;DHT22;15039;50.830;4.730;2023-02-01T00:41:16;7.70;99.90
27619;DHT22;15039;50.830;4.730;2023-02-01T00:43:43;7.70;99.90
27619;DHT22;15039;50.830;4.730;2023-02-01T00:46:09;7.70;99.90
27619;DHT22;15039;50.830;4.730;2023-02-01T00:48:35;7.80;99.90
27619;DHT22;15039;50.830;4.730;2023-02-01T00:51:03;7.90;99.90
27619;DHT22;15039;50.830;4.730;2023-02-01T00:53:29;7.80;99.90
27619;DHT22;15039;50.830;4.730;2023-02-01T00:55:55;7.80;99.90
27619;DHT22;15039;50.830;4.730;2023-02-01T00:58:22;7.80;99.90
27619;DHT22;15039;50.830;4.730;2023-02-01T01:00:49;7.70;99.90
27619;DHT22;15039;50.830;4.730;2023-02-01T01:03:15;7.80;99.90
27619;DHT22;15039;50.830;4.730;2023-02-01T01:05:47;7.80;99.90
27619;DHT22;15039;50.830;4.730;2023-02-01T01:08:14;7.70;99.90
27619;DHT22;15039;50.830;4.730;2023-02-01T01:10:41;7.60;99.90
27619;DHT22;15039;50.830;4.730;2023-02-01T01:13:07;7.70;99.90
27619;DHT22;15039;50.830;4.730;2023-02-01T01:15:37;7.70;99.90
27619;DHT22;15039;50.830;4.730;2023-02-01T01:18:03;7.80;99.90
27619;DHT22;15039;50.830;4.730;2023-02-01T01:20:29;7.80;99.90
27619;DHT22;15039;50.830;4.730;2023-02-01T01:22:55;7.70;99.90
27619;DHT22;15039;50.830;4.730;2023-02-01T01:25:21;7.70;99.90
27619;DHT22;15039;50.830;4.730;2023-02-01T01:27:46;7.70;99.90
27619;DHT22;15039;50.830;4.730;2023-02-01T01:30:12;7.70;99.90
27619;DHT22;15039;50.830;4.730;2023-02-01T01:32:38;7.60;99.90
27619;DHT22;15039;50.830;4.730;2023-02-01T01:35:04;7.60;99.90
27619;DHT22;15039;50.830;4.730;2023-02-01T01:37:29;7.60;99.90
27619;DHT22;15039;50.830;4.730;2023-02-01T01:39:55;7.60;99.90
27619;DHT22;15039;50.830;4.730;2023-02-01T01:42:21;7.50;99.90
27619;DHT22;15039;50.830;4.730;2023-02-01T01:45:07;7.60;99.90
27619;DHT22;15039;50.830;4.730;2023-02-01T01:47:43;7.60;99.90
27619;DHT22;15039;50.830;4.730;2023-02-01T01:50:14;7.50;99.90
27619;DHT22;15039;50.830;4.730;2023-02-01T01:52:43;7.50;99.90
27619;DHT22;15039;50.830;4.730;2023-02-01T01:55:10;7.50;99.90
27619;DHT22;15039;50.830;4.730;2023-02-01T01:57:40;7.50;99.90
27619;DHT22;15039;50.830;4.730;2023-02-01T02:00:13;7.40;99.90
27619;DHT22;15039;50.830;4.730;2023-02-01T02:02:42;7.40;99.90
27619;DHT22;15039;50.830;4.730;2023-02-01T02:05:09;7.50;99.90
27619;DHT22;15039;50.830;4.730;2023-02-01T02:07:40;7.40;99.90
27619;DHT22;15039;50.830;4.730;2023-02-01T02:10:09;7.50;99.90
27619;DHT22;15039;50.830;4.730;2023-02-01T02:12:44;7.40;99.90
27619;DHT22;15039;50.830;4.730;2023-02-01T02:15:12;7.40;99.90
27619;DHT22;15039;50.830;4.730;2023-02-01T02:38:05;7.40;99.90
27619;DHT22;15039;50.830;4.730;2023-02-01T02:40:41;7.40;99.90
27619;DHT22;15039;50.830;4.730;2023-02-01T02:46:32;7.10;99.90
27619;DHT22;15039;50.830;4.730;2023-02-01T02:49:27;7.00;99.90
27619;DHT22;15039;50.830;4.730;2023-02-01T02:52:03;7.00;99.90
27619;DHT22;15039;50.830;4.730;2023-02-01T02:54:50;7.00;99.90
27619;DHT22;15039;50.830;4.730;2023-02-01T02:57:34;7.00;99.90
27619;DHT22;15039;50.830;4.730;2023-02-01T03:00:23;7.00;99.90
27619;DHT22;15039;50.830;4.730;2023-02-01T03:03:08;7.00;99.90
27619;DHT22;15039;50.830;4.730;2023-02-01T03:05:52;7.00;99.90
27619;DHT22;15039;50.830;4.730;2023-02-01T03:08:20;7.10;99.90
27619;DHT22;15039;50.830;4.730;2023-02-01T03:16:00;7.00;99.90
27619;DHT22;15039;50.830;4.730;2023-02-01T03:18:35;7.00;99.90
27619;DHT22;15039;50.830;4.730;2023-02-01T03:21:07;7.10;99.90
27619;DHT22;15039;50.830;4.730;2023-02-01T03:23:36;7.10;99.90
27619;DHT22;15039;50.830;4.730;2023-02-01T03:26:07;7.00;99.90
27619;DHT22;15039;50.830;4.730;2023-02-01T03:28:36;7.00;99.90
27619;DHT22;15039;50.830;4.730;2023-02-01T03:31:05;6.90;99.90
27619;DHT22;15039;50.830;4.730;2023-02-01T03:33:31;6.90;99.90
27619;DHT22;15039;50.830;4.730;2023-02-01T03:36:17;6.90;99.90
27619;DHT22;15039;50.830;4.730;2023-02-01T03:39:11;6.90;99.90
27619;DHT22;15039;50.830;4.730;2023-02-01T03:41:42;6.90;99.90
27619;DHT22;15039;50.830;4.730;2023-02-01T03:44:25;6.80;99.90
27619;DHT22;15039;50.830;4.730;2023-02-01T03:46:56;6.80;99.90
27619;DHT22;15039;50.830;4.730;2023-02-01T03:49:27;6.80;99.90
27619;DHT22;15039;50.830;4.730;2023-02-01T03:51:54;6.90;99.90
27619;DHT22;15039;50.830;4.730;2023-02-01T03:54:22;6.80;99.90
27619;DHT22;15039;50.830;4.730;2023-02-01T03:56:48;6.80;99.90
27619;DHT22;15039;50.830;4.730;2023-02-01T03:59:16;6.80;99.90
27619;DHT22;15039;50.830;4.730;2023-02-01T04:01:42;6.70;99.90
27619;DHT22;15039;50.830;4.730;2023-02-01T04:04:07;6.70;99.90
27619;DHT22;15039;50.830;4.730;2023-02-01T04:06:34;6.60;99.90
27619;DHT22;15039;50.830;4.730;2023-02-01T04:09:00;6.60;99.90
27619;DHT22;15039;50.830;4.730;2023-02-01T04:11:25;6.60;99.90
27619;DHT22;15039;50.830;4.730;2023-02-01T04:13:53;6.50;99.90
27619;DHT22;15039;50.830;4.730;2023-02-01T04:16:18;6.40;99.90
27619;DHT22;15039;50.830;4.730;2023-02-01T04:18:44;6.50;99.90
27619;DHT22;15039;50.830;4.730;2023-02-01T04:21:09;6.40;99.90
27619;DHT22;15039;50.830;4.730;2023-02-01T04:23:35;6.40;99.90
27619;DHT22;15039;50.830;4.730;2023-02-01T04:26:03;6.40;99.90
27619;DHT22;15039;50.830;4.730;2023-02-01T04:28:29;6.30;99.90
27619;DHT22;15039;50.830;4.730;2023-02-01T04:30:55;6.40;99.90
27619;DHT22;15039;50.830;4.730;2023-02-01T04:33:21;6.30;99.90
27619;DHT22;15039;50.830;4.730;2023-02-01T04:35:47;6.30;99.90
27619;DHT22;15039;50.830;4.730;2023-02-01T04:38:13;6.30;99.90
27619;DHT22;15039;50.830;4.730;2023-02-01T04:40:39;6.30;99.90
27619;DHT22;15039;50.830;4.730;2023-02-01T04:43:04;6.20;99.90
27619;DHT22;15039;50.830;4.730;2023-02-01T04:45:30;6.20;99.90
27619;DHT22;15039;50.830;4.730;2023-02-01T04:47:56;6.20;99.90
27619;DHT22;15039;50.830;4.730;2023-02-01T04:50:21;6.10;99.90
27619;DHT22;15039;50.830;4.730;2023-02-01T04:52:49;6.10;99.90
27619;DHT22;15039;50.830;4.730;2023-02-01T04:55:14;6.00;99.90
27619;DHT22;15039;50.830;4.730;2023-02-01T04:57:40;6.10;99.90
27619;DHT22;15039;50.830;4.730;2023-02-01T05:00:07;6.10;99.90
27619;DHT22;15039;50.830;4.730;2023-02-01T05:02:33;6.00;99.90
27619;DHT22;15039;50.830;4.730;2023-02-01T05:05:00;6.00;99.90
27619;DHT22;15039;50.830;4.730;2023-02-01T05:07:26;6.00;99.90
27619;DHT22;15039;50.830;4.730;2023-02-01T05:09:51;6.00;99.90
27619;DHT22;15039;50.830;4.730;2023-02-01T05:12:17;6.00;99.90
27619;DHT22;15039;50.830;4.730;2023-02-01T05:15:03;5.90;99.90
27619;DHT22;15039;50.830;4.730;2023-02-01T05:17:29;5.90;99.90
27619;DHT22;15039;50.830;4.730;2023-02-01T05:19:55;5.90;99.90
27619;DHT22;15039;50.830;4.730;2023-02-01T05:22:20;5.90;99.90
27619;DHT22;15039;50.830;4.730;2023-02-01T05:24:46;5.80;99.90
27619;DHT22;15039;50.830;4.730;2023-02-01T05:27:11;5.80;99.90
27619;DHT22;15039;50.830;4.730;2023-02-01T05:29:37;5.80;99.90
27619;DHT22;15039;50.830;4.730;2023-02-01T05:32:03;5.80;99.90
27619;DHT22;15039;50.830;4.730;2023-02-01T05:34:28;5.80;99.90
27619;DHT22;15039;50.830;4.730;2023-02-01T05:36:54;5.80;99.90
27619;DHT22;15039;50.830;4.730;2023-02-01T05:39:20;5.80;99.90
27619;DHT22;15039;50.830;4.730;2023-02-01T05:41:45;5.70;99.90
27619;DHT22;15039;50.830;4.730;2023-02-01T05:44:11;5.70;99.90
27619;DHT22;15039;50.830;4.730;2023-02-01T05:46:37;5.70;99.90
27619;DHT22;15039;50.830;4.730;2023-02-01T05:49:03;5.60;99.90
27619;DHT22;15039;50.830;4.730;2023-02-01T05:51:29;5.60;99.90
27619;DHT22;15039;50.830;4.730;2023-02-01T05:53:54;5.60;99.90
27619;DHT22;15039;50.830;4.730;2023-02-01T05:56:20;5.60;99.90
27619;DHT22;15039;50.830;4.730;2023-02-01T05:58:46;5.50;99.90
27619;DHT22;15039;50.830;4.730;2023-02-01T06:01:11;5.50;99.90
27619;DHT22;15039;50.830;4.730;2023-02-01T06:03:38;5.50;99.90
27619;DHT22;15039;50.830;4.730;2023-02-01T06:06:04;5.50;99.90
27619;DHT22;15039;50.830;4.730;2023-02-01T06:08:29;5.50;99.90
27619;DHT22;15039;50.830;4.730;2023-02-01T06:10:59;5.40;99.90
27619;DHT22;15039;50.830;4.730;2023-02-01T06:13:25;5.40;99.90
27619;DHT22;15039;50.830;4.730;2023-02-01T06:15:51;5.40;99.90
27619;DHT22;15039;50.830;4.730;2023-02-01T06:18:17;5.40;99.90
27619;DHT22;15039;50.830;4.730;2023-02-01T06:20:43;5.40;99.90
27619;DHT22;15039;50.830;4.730;2023-02-01T06:23:09;5.40;99.90
27619;DHT22;15039;50.830;4.730;2023-02-01T06:25:34;5.30;99.90
27619;DHT22;15039;50.830;4.730;2023-02-01T06:28:00;5.30;99.90
27619;DHT22;15039;50.830;4.730;2023-02-01T06:30:27;5.30;99.90
27619;DHT22;15039;50.830;4.730;2023-02-01T06:32:53;5.40;99.90
27619;DHT22;15039;50.830;4.730;2023-02-01T06:35:19;5.40;99.90
27619;DHT22;15039;50.830;4.730;2023-02-01T06:37:44;5.40;99.90
27619;DHT22;15039;50.830;4.730;2023-02-01T06:40:11;5.40;99.90
27619;DHT22;15039;50.830;4.730;2023-02-01T06:42:37;5.40;99.90
27619;DHT22;15039;50.830;4.730;2023-02-01T06:45:03;5.40;99.90
27619;DHT22;15039;50.830;4.730;2023-02-01T06:47:29;5.50;99.90
27619;DHT22;15039;50.830;4.730;2023-02-01T06:49:54;5.40;99.90
27619;DHT22;15039;50.830;4.730;2023-02-01T06:52:20;5.40;99.90
27619;DHT22;15039;50.830;4.730;2023-02-01T06:54:45;5.40;99.90
27619;DHT22;15039;50.830;4.730;2023-02-01T06:57:11;5.30;99.90
27619;DHT22;15039;50.830;4.730;2023-02-01T06:59:38;5.40;99.90
27619;DHT22;15039;50.830;4.730;2023-02-01T07:02:03;5.30;99.90
27619;DHT22;15039;50.830;4.730;2023-02-01T07:04:30;5.30;99.90
27619;DHT22;15039;50.830;4.730;2023-02-01T07:06:55;5.30;99.90
27619;DHT22;15039;50.830;4.730;2023-02-01T07:09:21;5.20;99.90
27619;DHT22;15039;50.830;4.730;2023-02-01T07:11:46;5.20;99.90
27619;DHT22;15039;50.830;4.730;2023-02-01T07:14:12;5.10;99.90
27619;DHT22;15039;50.830;4.730;2023-02-01T07:16:38;5.10;99.90
27619;DHT22;15039;50.830;4.730;2023-02-01T07:19:04;5.20;99.90
27619;DHT22;15039;50.830;4.730;2023-02-01T07:21:30;5.20;99.90
27619;DHT22;15039;50.830;4.730;2023-02-01T07:23:55;5.10;99.90
27619;DHT22;15039;50.830;4.730;2023-02-01T07:26:21;5.10;99.90
27619;DHT22;15039;50.830;4.730;2023-02-01T07:28:47;5.10;99.90
27619;DHT22;15039;50.830;4.730;2023-02-01T07:31:18;5.10;99.90
27619;DHT22;15039;50.830;4.730;2023-02-01T07:33:46;5.00;99.90
27619;DHT22;15039;50.830;4.730;2023-02-01T07:36:14;5.00;99.90
27619;DHT22;15039;50.830;4.730;2023-02-01T07:38:40;5.00;99.90
27619;DHT22;15039;50.830;4.730;2023-02-01T07:41:07;5.00;99.90
27619;DHT22;15039;50.830;4.730;2023-02-01T07:43:34;5.10;99.90
27619;DHT22;15039;50.830;4.730;2023-02-01T07:46:01;5.10;99.90
27619;DHT22;15039;50.830;4.730;2023-02-01T07:48:27;5.10;99.90
27619;DHT22;15039;50.830;4.730;2023-02-01T07:50:59;5.10;99.90
27619;DHT22;15039;50.830;4.730;2023-02-01T07:53:26;5.10;99.90
27619;DHT22;15039;50.830;4.730;2023-02-01T07:55:53;5.20;99.90
27619;DHT22;15039;50.830;4.730;2023-02-01T07:58:19;5.10;99.90
27619;DHT22;15039;50.830;4.730;2023-02-01T08:00:44;5.10;99.90
27619;DHT22;15039;50.830;4.730;2023-02-01T08:03:28;5.10;99.90
27619;DHT22;15039;50.830;4.730;2023-02-01T08:05:55;5.10;99.90
27619;DHT22;15039;50.830;4.730;2023-02-01T08:08:21;5.20;99.90
27619;DHT22;15039;50.830;4.730;2023-02-01T08:10:47;5.20;99.90
27619;DHT22;15039;50.830;4.730;2023-02-01T08:13:12;5.30;99.90
27619;DHT22;15039;50.830;4.730;2023-02-01T08:15:38;5.40;99.90
27619;DHT22;15039;50.830;4.730;2023-02-01T08:18:03;5.50;99.90
27619;DHT22;15039;50.830;4.730;2023-02-01T08:20:29;5.60;99.90
27619;DHT22;15039;50.830;4.730;2023-02-01T08:22:55;5.60;99.90
27619;DHT22;15039;50.830;4.730;2023-02-01T08:25:21;5.70;99.90
27619;DHT22;15039;50.830;4.730;2023-02-01T08:27:47;5.80;99.90
27619;DHT22;15039;50.830;4.730;2023-02-01T08:30:13;5.80;99.90
27619;DHT22;15039;50.830;4.730;2023-02-01T08:32:39;5.80;99.90
27619;DHT22;15039;50.830;4.730;2023-02-01T08:35:06;5.90;99.90
27619;DHT22;15039;50.830;4.730;2023-02-01T08:37:32;5.90;99.90
27619;DHT22;15039;50.830;4.730;2023-02-01T08:39:57;5.90;99.90
27619;DHT22;15039;50.830;4.730;2023-02-01T08:42:23;5.90;99.90
27619;DHT22;15039;50.830;4.730;2023-02-01T08:45:08;6.00;99.90
27619;DHT22;15039;50.830;4.730;2023-02-01T08:47:34;6.00;99.90
27619;DHT22;15039;50.830;4.730;2023-02-01T08:49:59;6.10;99.90
27619;DHT22;15039;50.830;4.730;2023-02-01T08:52:25;6.10;99.90
27619;DHT22;15039;50.830;4.730;2023-02-01T08:54:51;6.20;99.90
27619;DHT22;15039;50.830;4.730;2023-02-01T08:57:16;6.20;99.90
27619;DHT22;15039;50.830;4.730;2023-02-01T08:59:43;6.20;99.90
27619;DHT22;15039;50.830;4.730;2023-02-01T09:02:13;6.20;99.90
27619;DHT22;15039;50.830;4.730;2023-02-01T09:04:40;6.30;99.90
27619;DHT22;15039;50.830;4.730;2023-02-01T09:07:06;6.40;99.90
27619;DHT22;15039;50.830;4.730;2023-02-01T09:09:32;6.50;99.90
27619;DHT22;15039;50.830;4.730;2023-02-01T09:11:57;6.50;99.90
27619;DHT22;15039;50.830;4.730;2023-02-01T09:14:23;6.60;99.90
27619;DHT22;15039;50.830;4.730;2023-02-01T09:16:48;6.60;99.90
27619;DHT22;15039;50.830;4.730;2023-02-01T09:19:14;6.50;99.90
27619;DHT22;15039;50.830;4.730;2023-02-01T09:21:40;6.60;99.90
27619;DHT22;15039;50.830;4.730;2023-02-01T09:24:06;6.60;99.90
27619;DHT22;15039;50.830;4.730;2023-02-01T09:26:32;6.70;99.90
27619;DHT22;15039;50.830;4.730;2023-02-01T09:28:59;6.70;99.90
27619;DHT22;15039;50.830;4.730;2023-02-01T09:31:26;6.70;99.90
27619;DHT22;15039;50.830;4.730;2023-02-01T09:33:52;6.80;99.90
27619;DHT22;15039;50.830;4.730;2023-02-01T09:36:18;6.80;99.90
27619;DHT22;15039;50.830;4.730;2023-02-01T09:38:45;6.80;99.90
27619;DHT22;15039;50.830;4.730;2023-02-01T09:46:59;7.10;99.90
27619;DHT22;15039;50.830;4.730;2023-02-01T09:49:33;7.10;99.90
27619;DHT22;15039;50.830;4.730;2023-02-01T09:52:04;7.10;99.90
27619;DHT22;15039;50.830;4.730;2023-02-01T09:54:47;7.10;99.90
27619;DHT22;15039;50.830;4.730;2023-02-01T10:00:34;7.20;99.90
27619;DHT22;15039;50.830;4.730;2023-02-01T10:03:00;7.20;99.90
27619;DHT22;15039;50.830;4.730;2023-02-01T10:08:20;7.20;99.90
27619;DHT22;15039;50.830;4.730;2023-02-01T10:10:52;7.10;99.90
27619;DHT22;15039;50.830;4.730;2023-02-01T10:19:29;7.40;99.90
27619;DHT22;15039;50.830;4.730;2023-02-01T10:22:08;7.50;99.90
27619;DHT22;15039;50.830;4.730;2023-02-01T10:27:21;7.50;99.90
27619;DHT22;15039;50.830;4.730;2023-02-01T10:30:01;7.60;99.90
27619;DHT22;15039;50.830;4.730;2023-02-01T10:32:31;7.70;99.90
27619;DHT22;15039;50.830;4.730;2023-02-01T10:34:59;7.70;99.90
27619;DHT22;15039;50.830;4.730;2023-02-01T10:37:29;7.80;99.90
27619;DHT22;15039;50.830;4.730;2023-02-01T10:39:59;7.80;99.90
27619;DHT22;15039;50.830;4.730;2023-02-01T10:42:27;7.80;99.90
27619;DHT22;15039;50.830;4.730;2023-02-01T10:44:56;7.90;99.90
27619;DHT22;15039;50.830;4.730;2023-02-01T10:47:23;8.00;99.90
27619;DHT22;15039;50.830;4.730;2023-02-01T10:52:25;8.10;99.90
27619;DHT22;15039;50.830;4.730;2023-02-01T10:54:53;8.20;99.90
27619;DHT22;15039;50.830;4.730;2023-02-01T10:57:26;8.20;99.90
27619;DHT22;15039;50.830;4.730;2023-02-01T10:59:54;8.20;99.90
27619;DHT22;15039;50.830;4.730;2023-02-01T11:02:27;8.30;99.90
27619;DHT22;15039;50.830;4.730;2023-02-01T11:05:09;8.30;99.90
27619;DHT22;15039;50.830;4.730;2023-02-01T11:07:36;8.40;99.90
27619;DHT22;15039;50.830;4.730;2023-02-01T11:10:03;8.50;99.90
27619;DHT22;15039;50.830;4.730;2023-02-01T11:12:35;8.50;99.90
27619;DHT22;15039;50.830;4.730;2023-02-01T11:15:22;8.60;99.90
27619;DHT22;15039;50.830;4.730;2023-02-01T11:17:50;8.70;99.90
27619;DHT22;15039;50.830;4.730;2023-02-01T11:20:38;8.70;99.90
27619;DHT22;15039;50.830;4.730;2023-02-01T11:23:05;8.90;99.90
27619;DHT22;15039;50.830;4.730;2023-02-01T11:25:33;9.00;99.90
27619;DHT22;15039;50.830;4.730;2023-02-01T11:28:01;9.10;99.90
27619;DHT22;15039;50.830;4.730;2023-02-01T11:32:55;9.00;99.90
27619;DHT22;15039;50.830;4.730;2023-02-01T11:35:21;9.00;99.90
27619;DHT22;15039;50.830;4.730;2023-02-01T11:37:58;9.00;99.90
27619;DHT22;15039;50.830;4.730;2023-02-01T11:40:37;9.10;99.90
27619;DHT22;15039;50.830;4.730;2023-02-01T11:43:25;9.10;99.90
27619;DHT22;15039;50.830;4.730;2023-02-01T11:45:57;9.10;99.90
27619;DHT22;15039;50.830;4.730;2023-02-01T11:48:25;9.10;99.90
27619;DHT22;15039;50.830;4.730;2023-02-01T11:51:22;9.20;99.90
27619;DHT22;15039;50.830;4.730;2023-02-01T12:02:22;9.20;99.90
27619;DHT22;15039;50.830;4.730;2023-02-01T12:14:03;9.30;99.90
27619;DHT22;15039;50.830;4.730;2023-02-01T12:22:40;9.40;99.90
27619;DHT22;15039;50.830;4.730;2023-02-01T12:25:44;9.50;99.90
27619;DHT22;15039;50.830;4.730;2023-02-01T12:36:29;9.70;99.90
27619;DHT22;15039;50.830;4.730;2023-02-01T12:39:22;9.60;99.90
27619;DHT22;15039;50.830;4.730;2023-02-01T12:44:52;9.60;99.90
27619;DHT22;15039;50.830;4.730;2023-02-01T12:50:14;9.70;99.90
27619;DHT22;15039;50.830;4.730;2023-02-01T12:52:54;9.80;99.90
27619;DHT22;15039;50.830;4.730;2023-02-01T12:55:32;9.90;99.90
27619;DHT22;15039;50.830;4.730;2023-02-01T12:58:13;10.00;99.90
27619;DHT22;15039;50.830;4.730;2023-02-01T13:01:05;10.00;99.90
27619;DHT22;15039;50.830;4.730;2023-02-01T13:03:53;10.10;99.90
27619;DHT22;15039;50.830;4.730;2023-02-01T13:11:38;10.10;99.90
27619;DHT22;15039;50.830;4.730;2023-02-01T13:17:00;10.30;99.90
27619;DHT22;15039;50.830;4.730;2023-02-01T13:21:59;10.30;99.90
27619;DHT22;15039;50.830;4.730;2023-02-01T13:24:42;10.30;99.90
27619;DHT22;15039;50.830;4.730;2023-02-01T13:27:14;10.40;99.90
27619;DHT22;15039;50.830;4.730;2023-02-01T13:32:28;10.50;99.90
27619;DHT22;15039;50.830;4.730;2023-02-01T13:43:16;10.70;99.90
27619;DHT22;15039;50.830;4.730;2023-02-01T13:45:47;10.80;99.90
27619;DHT22;15039;50.830;4.730;2023-02-01T13:51:00;10.80;99.90
27619;DHT22;15039;50.830;4.730;2023-02-01T13:53:30;10.70;99.90
27619;DHT22;15039;50.830;4.730;2023-02-01T13:56:07;10.40;99.90
27619;DHT22;15039;50.830;4.730;2023-02-01T13:58:37;10.30;99.90
27619;DHT22;15039;50.830;4.730;2023-02-01T14:03:59;10.20;99.90
27619;DHT22;15039;50.830;4.730;2023-02-01T14:19:23;10.10;99.90
27619;DHT22;15039;50.830;4.730;2023-02-01T14:21:51;10.10;99.90
27619;DHT22;15039;50.830;4.730;2023-02-01T14:27:19;10.10;99.90
27619;DHT22;15039;50.830;4.730;2023-02-01T14:29:52;10.20;99.90
27619;DHT22;15039;50.830;4.730;2023-02-01T14:32:25;10.20;99.90
27619;DHT22;15039;50.830;4.730;2023-02-01T14:34:56;10.30;99.90
27619;DHT22;15039;50.830;4.730;2023-02-01T14:37:30;10.20;99.90
27619;DHT22;15039;50.830;4.730;2023-02-01T14:40:23;10.20;99.90
27619;DHT22;15039;50.830;4.730;2023-02-01T14:42:52;10.10;99.90
27619;DHT22;15039;50.830;4.730;2023-02-01T14:55:45;10.00;99.90
27619;DHT22;15039;50.830;4.730;2023-02-01T15:00:58;10.10;99.90
27619;DHT22;15039;50.830;4.730;2023-02-01T15:06:40;10.00;99.90
27619;DHT22;15039;50.830;4.730;2023-02-01T15:09:20;10.00;99.90
27619;DHT22;15039;50.830;4.730;2023-02-01T15:14:41;10.00;99.90
27619;DHT22;15039;50.830;4.730;2023-02-01T15:17:18;9.90;99.90
27619;DHT22;15039;50.830;4.730;2023-02-01T15:22:19;9.70;99.90
27619;DHT22;15039;50.830;4.730;2023-02-01T15:24:52;9.70;99.90
27619;DHT22;15039;50.830;4.730;2023-02-01T15:27:18;9.60;99.90
27619;DHT22;15039;50.830;4.730;2023-02-01T15:29:44;9.60;99.90
27619;DHT22;15039;50.830;4.730;2023-02-01T15:32:32;9.60;99.90
27619;DHT22;15039;50.830;4.730;2023-02-01T15:34:59;9.60;99.90
27619;DHT22;15039;50.830;4.730;2023-02-01T15:37:28;9.50;99.90
27619;DHT22;15039;50.830;4.730;2023-02-01T15:42:35;9.60;99.90
27619;DHT22;15039;50.830;4.730;2023-02-01T15:45:02;9.60;99.90
27619;DHT22;15039;50.830;4.730;2023-02-01T15:47:29;9.50;99.90
27619;DHT22;15039;50.830;4.730;2023-02-01T15:49:58;9.50;99.90
27619;DHT22;15039;50.830;4.730;2023-02-01T15:52:36;9.50;99.90
27619;DHT22;15039;50.830;4.730;2023-02-01T15:55:05;9.50;99.90
27619;DHT22;15039;50.830;4.730;2023-02-01T15:57:38;9.40;99.90
27619;DHT22;15039;50.830;4.730;2023-02-01T16:00:07;9.50;99.90
27619;DHT22;15039;50.830;4.730;2023-02-01T16:02:36;9.50;99.90
27619;DHT22;15039;50.830;4.730;2023-02-01T16:05:05;9.50;99.90
27619;DHT22;15039;50.830;4.730;2023-02-01T16:07:33;9.50;99.90
27619;DHT22;15039;50.830;4.730;2023-02-01T16:10:00;9.40;99.90
27619;DHT22;15039;50.830;4.730;2023-02-01T16:12:45;9.40;99.90
27619;DHT22;15039;50.830;4.730;2023-02-01T16:15:11;9.50;99.90
27619;DHT22;15039;50.830;4.730;2023-02-01T16:17:37;9.50;99.90
27619;DHT22;15039;50.830;4.730;2023-02-01T16:20:04;9.50;99.90
27619;DHT22;15039;50.830;4.730;2023-02-01T16:22:29;9.50;99.90
27619;DHT22;15039;50.830;4.730;2023-02-01T16:24:55;9.50;99.90
27619;DHT22;15039;50.830;4.730;2023-02-01T16:27:21;9.50;99.90
27619;DHT22;15039;50.830;4.730;2023-02-01T16:29:48;9.50;99.90
27619;DHT22;15039;50.830;4.730;2023-02-01T16:32:18;9.40;99.90
27619;DHT22;15039;50.830;4.730;2023-02-01T16:34:45;9.40;99.90
27619;DHT22;15039;50.830;4.730;2023-02-01T16:37:18;9.40;99.90
27619;DHT22;15039;50.830;4.730;2023-02-01T16:39:45;9.30;99.90
27619;DHT22;15039;50.830;4.730;2023-02-01T16:42:12;9.20;99.90
27619;DHT22;15039;50.830;4.730;2023-02-01T16:44:38;9.10;99.90
27619;DHT22;15039;50.830;4.730;2023-02-01T16:47:12;9.00;99.90
27619;DHT22;15039;50.830;4.730;2023-02-01T16:49:41;9.00;99.90
27619;DHT22;15039;50.830;4.730;2023-02-01T16:52:28;9.10;99.90
27619;DHT22;15039;50.830;4.730;2023-02-01T16:54:54;9.10;99.90
27619;DHT22;15039;50.830;4.730;2023-02-01T16:57:20;9.10;99.90
27619;DHT22;15039;50.830;4.730;2023-02-01T16:59:49;9.10;99.90
27619;DHT22;15039;50.830;4.730;2023-02-01T17:02:19;9.10;99.90
27619;DHT22;15039;50.830;4.730;2023-02-01T17:04:46;9.10;99.90
27619;DHT22;15039;50.830;4.730;2023-02-01T17:07:18;9.10;99.90
27619;DHT22;15039;50.830;4.730;2023-02-01T17:09:44;9.20;99.90
27619;DHT22;15039;50.830;4.730;2023-02-01T17:12:30;9.20;99.90
27619;DHT22;15039;50.830;4.730;2023-02-01T17:14:58;9.20;99.90
27619;DHT22;15039;50.830;4.730;2023-02-01T17:17:37;9.20;99.90
27619;DHT22;15039;50.830;4.730;2023-02-01T17:20:04;9.20;99.90
27619;DHT22;15039;50.830;4.730;2023-02-01T17:22:31;9.20;99.90
27619;DHT22;15039;50.830;4.730;2023-02-01T17:24:56;9.10;99.90
27619;DHT22;15039;50.830;4.730;2023-02-01T17:27:22;9.10;99.90
27619;DHT22;15039;50.830;4.730;2023-02-01T17:29:48;9.10;99.90
27619;DHT22;15039;50.830;4.730;2023-02-01T17:32:22;9.10;99.90
27619;DHT22;15039;50.830;4.730;2023-02-01T17:34:49;9.10;99.90
27619;DHT22;15039;50.830;4.730;2023-02-01T17:39:47;9.10;99.90
27619;DHT22;15039;50.830;4.730;2023-02-01T17:42:20;9.10;99.90
27619;DHT22;15039;50.830;4.730;2023-02-01T17:44:46;9.00;99.90
27619;DHT22;15039;50.830;4.730;2023-02-01T17:47:12;9.10;99.90
27619;DHT22;15039;50.830;4.730;2023-02-01T17:49:37;9.10;99.90
27619;DHT22;15039;50.830;4.730;2023-02-01T17:52:04;9.10;99.90
27619;DHT22;15039;50.830;4.730;2023-02-01T17:54:30;9.00;99.90
27619;DHT22;15039;50.830;4.730;2023-02-01T17:56:55;9.00;99.90
27619;DHT22;15039;50.830;4.730;2023-02-01T17:59:25;9.00;99.90
27619;DHT22;15039;50.830;4.730;2023-02-01T18:01:51;9.00;99.90
27619;DHT22;15039;50.830;4.730;2023-02-01T18:04:18;9.10;99.90
27619;DHT22;15039;50.830;4.730;2023-02-01T18:06:44;9.10;99.90
27619;DHT22;15039;50.830;4.730;2023-02-01T18:09:10;9.10;99.90
27619;DHT22;15039;50.830;4.730;2023-02-01T18:11:36;9.00;99.90
27619;DHT22;15039;50.830;4.730;2023-02-01T18:14:02;9.10;99.90
27619;DHT22;15039;50.830;4.730;2023-02-01T18:16:32;9.10;99.90
27619;DHT22;15039;50.830;4.730;2023-02-01T18:18:58;9.10;99.90
27619;DHT22;15039;50.830;4.730;2023-02-01T18:21:33;9.10;99.90
27619;DHT22;15039;50.830;4.730;2023-02-01T18:24:03;9.10;99.90
27619;DHT22;15039;50.830;4.730;2023-02-01T18:26:29;9.00;99.90
27619;DHT22;15039;50.830;4.730;2023-02-01T18:28:54;9.00;99.90
27619;DHT22;15039;50.830;4.730;2023-02-01T18:31:24;8.90;99.90
27619;DHT22;15039;50.830;4.730;2023-02-01T18:33:52;9.00;99.90
27619;DHT22;15039;50.830;4.730;2023-02-01T18:36:18;8.90;99.90
27619;DHT22;15039;50.830;4.730;2023-02-01T18:38:43;8.90;99.90
27619;DHT22;15039;50.830;4.730;2023-02-01T18:41:17;8.90;99.90